sensor_id;sensor_type;location;lat;lon;timestamp;P1;durP1;ratioP1;P2;durP2;ratioP2
4754;SDS011;2391;47.212;7.542;2022-10-12T04:07:02;16.87;;;10.50;;
4754;SDS011;2391;47.212;7.542;2022-10-12T04:09:31;16.97;;;10.77;;
4754;SDS011;2391;47.212;7.542;2022-10-12T04:11:57;20.07;;;9.70;;
4754;SDS011;2391;47.212;7.542;2022-10-12T04:14:38;21.93;;;9.90;;
4754;SDS011;2391;47.212;7.542;2022-10-12T04:20:16;19.43;;;10.40;;
4754;SDS011;2391;47.212;7.542;2022-10-12T04:22:42;17.20;;;10.13;;
4754;SDS011;2391;47.212;7.542;2022-10-12T04:25:09;21.07;;;10.33;;
4754;SDS011;2391;47.212;7.542;2022-10-12T04:27:36;15.97;;;10.10;;
4754;SDS011;2391;47.212;7.542;2022-10-12T04:53:10;22.67;;;11.30;;
4754;SDS011;2391;47.212;7.542;2022-10-12T04:55:38;24.57;;;13.40;;
4754;SDS011;2391;47.212;7.542;2022-10-12T04:58:06;23.80;;;12.70;;
4754;SDS011;2391;47.212;7.542;2022-10-12T05:00:34;21.90;;;10.50;;
4754;SDS011;2391;47.212;7.542;2022-10-12T05:03:02;28.07;;;12.00;;
4754;SDS011;2391;47.212;7.542;2022-10-12T05:05:30;28.40;;;11.33;;
4754;SDS011;2391;47.212;7.542;2022-10-12T05:07:58;19.50;;;11.23;;
4754;SDS011;2391;47.212;7.542;2022-10-12T05:10:25;17.00;;;10.30;;
4754;SDS011;2391;47.212;7.542;2022-10-12T05:12:52;20.00;;;11.47;;
4754;SDS011;2391;47.212;7.542;2022-10-12T05:15:22;24.97;;;12.20;;
4754;SDS011;2391;47.212;7.542;2022-10-12T05:17:50;25.00;;;11.80;;
4754;SDS011;2391;47.212;7.542;2022-10-12T05:20:18;23.40;;;13.30;;
4754;SDS011;2391;47.212;7.542;2022-10-12T05:22:46;26.00;;;13.30;;
4754;SDS011;2391;47.212;7.542;2022-10-12T05:25:14;21.67;;;12.30;;
4754;SDS011;2391;47.212;7.542;2022-10-12T05:27:40;25.20;;;12.90;;
4754;SDS011;2391;47.212;7.542;2022-10-12T05:30:07;22.07;;;13.30;;
4754;SDS011;2391;47.212;7.542;2022-10-12T05:32:33;23.23;;;12.77;;
4754;SDS011;2391;47.212;7.542;2022-10-12T05:35:03;25.50;;;12.90;;
4754;SDS011;2391;47.212;7.542;2022-10-12T05:37:33;36.73;;;17.30;;
4754;SDS011;2391;47.212;7.542;2022-10-12T05:40:02;24.53;;;13.30;;
4754;SDS011;2391;47.212;7.542;2022-10-12T05:42:30;24.53;;;12.37;;
4754;SDS011;2391;47.212;7.542;2022-10-12T05:44:59;32.20;;;14.90;;
4754;SDS011;2391;47.212;7.542;2022-10-12T05:47:25;25.27;;;12.60;;
4754;SDS011;2391;47.212;7.542;2022-10-12T05:49:51;44.57;;;15.33;;
4754;SDS011;2391;47.212;7.542;2022-10-12T05:52:19;28.70;;;14.03;;
4754;SDS011;2391;47.212;7.542;2022-10-12T05:54:49;20.70;;;12.47;;
4754;SDS011;2391;47.212;7.542;2022-10-12T05:57:19;22.07;;;12.57;;
4754;SDS011;2391;47.212;7.542;2022-10-12T05:59:48;30.73;;;14.03;;
4754;SDS011;2391;47.212;7.542;2022-10-12T06:02:13;29.90;;;14.93;;
4754;SDS011;2391;47.212;7.542;2022-10-12T06:04:41;24.00;;;13.73;;
4754;SDS011;2391;47.212;7.542;2022-10-12T06:07:11;22.90;;;13.67;;
4754;SDS011;2391;47.212;7.542;2022-10-12T06:12:06;33.50;;;15.00;;
4754;SDS011;2391;47.212;7.542;2022-10-12T06:14:34;24.60;;;13.70;;
4754;SDS011;2391;47.212;7.542;2022-10-12T06:17:00;29.43;;;15.50;;
4754;SDS011;2391;47.212;7.542;2022-10-12T06:19:26;26.70;;;14.80;;
4754;SDS011;2391;47.212;7.542;2022-10-12T06:21:54;21.87;;;13.10;;
4754;SDS011;2391;47.212;7.542;2022-10-12T06:24:24;27.97;;;15.10;;
4754;SDS011;2391;47.212;7.542;2022-10-12T06:26:54;29.67;;;15.13;;
4754;SDS011;2391;47.212;7.542;2022-10-12T06:29:22;26.97;;;14.33;;
4754;SDS011;2391;47.212;7.542;2022-10-12T06:31:51;28.97;;;14.30;;
4754;SDS011;2391;47.212;7.542;2022-10-12T06:34:23;29.43;;;14.33;;
4754;SDS011;2391;47.212;7.542;2022-10-12T06:36:51;27.33;;;15.03;;
4754;SDS011;2391;47.212;7.542;2022-10-12T06:39:18;28.30;;;14.50;;
4754;SDS011;2391;47.212;7.542;2022-10-12T06:41:48;35.77;;;14.83;;
4754;SDS011;2391;47.212;7.542;2022-10-12T06:44:20;35.90;;;14.50;;
4754;SDS011;2391;47.212;7.542;2022-10-12T06:46:51;27.27;;;13.90;;
4754;SDS011;2391;47.212;7.542;2022-10-12T06:49:22;30.43;;;15.07;;
4754;SDS011;2391;47.212;7.542;2022-10-12T06:51:49;27.30;;;13.90;;
4754;SDS011;2391;47.212;7.542;2022-10-12T06:54:17;24.43;;;13.67;;
4754;SDS011;2391;47.212;7.542;2022-10-12T06:56:48;25.77;;;15.27;;
4754;SDS011;2391;47.212;7.542;2022-10-12T06:59:16;28.17;;;14.57;;
4754;SDS011;2391;47.212;7.542;2022-10-12T07:01:44;30.90;;;15.27;;
4754;SDS011;2391;47.212;7.542;2022-10-12T07:04:12;23.70;;;14.27;;
4754;SDS011;2391;47.212;7.542;2022-10-12T07:06:42;35.57;;;13.90;;
4754;SDS011;2391;47.212;7.542;2022-10-12T07:09:11;28.90;;;14.93;;
4754;SDS011;2391;47.212;7.542;2022-10-12T07:11:40;28.60;;;15.73;;
4754;SDS011;2391;47.212;7.542;2022-10-12T07:14:06;30.80;;;14.80;;
4754;SDS011;2391;47.212;7.542;2022-10-12T07:16:34;37.37;;;14.73;;
4754;SDS011;2391;47.212;7.542;2022-10-12T07:19:02;36.23;;;14.73;;
4754;SDS011;2391;47.212;7.542;2022-10-12T07:21:32;25.83;;;13.93;;
4754;SDS011;2391;47.212;7.542;2022-10-12T07:24:04;29.83;;;15.63;;
4754;SDS011;2391;47.212;7.542;2022-10-12T07:26:34;42.57;;;14.80;;
4754;SDS011;2391;47.212;7.542;2022-10-12T07:29:03;35.33;;;15.70;;
4754;SDS011;2391;47.212;7.542;2022-10-12T07:31:34;32.77;;;16.57;;
4754;SDS011;2391;47.212;7.542;2022-10-12T07:34:02;33.77;;;16.07;;
4754;SDS011;2391;47.212;7.542;2022-10-12T07:36:33;28.77;;;14.80;;
4754;SDS011;2391;47.212;7.542;2022-10-12T07:39:03;31.50;;;16.60;;
4754;SDS011;2391;47.212;7.542;2022-10-12T07:41:29;24.93;;;14.77;;
4754;SDS011;2391;47.212;7.542;2022-10-12T07:43:57;36.80;;;16.20;;
4754;SDS011;2391;47.212;7.542;2022-10-12T07:46:27;29.73;;;15.57;;
4754;SDS011;2391;47.212;7.542;2022-10-12T07:48:56;28.50;;;15.10;;
4754;SDS011;2391;47.212;7.542;2022-10-12T07:51:30;33.40;;;15.27;;
4754;SDS011;2391;47.212;7.542;2022-10-12T07:53:56;32.20;;;15.50;;
4754;SDS011;2391;47.212;7.542;2022-10-12T07:56:27;27.10;;;15.33;;
4754;SDS011;2391;47.212;7.542;2022-10-12T07:58:57;26.40;;;16.43;;
4754;SDS011;2391;47.212;7.542;2022-10-12T08:01:26;26.57;;;15.33;;
4754;SDS011;2391;47.212;7.542;2022-10-12T08:03:55;42.10;;;15.20;;
4754;SDS011;2391;47.212;7.542;2022-10-12T08:06:31;28.00;;;15.50;;
4754;SDS011;2391;47.212;7.542;2022-10-12T08:08:56;37.63;;;15.03;;
4754;SDS011;2391;47.212;7.542;2022-10-12T08:11:29;28.53;;;15.40;;
4754;SDS011;2391;47.212;7.542;2022-10-12T08:13:54;32.17;;;15.37;;
4754;SDS011;2391;47.212;7.542;2022-10-12T08:16:21;29.37;;;15.67;;
4754;SDS011;2391;47.212;7.542;2022-10-12T08:18:49;35.17;;;15.00;;
4754;SDS011;2391;47.212;7.542;2022-10-12T08:21:22;31.40;;;17.37;;
4754;SDS011;2391;47.212;7.542;2022-10-12T08:23:49;31.20;;;15.93;;
4754;SDS011;2391;47.212;7.542;2022-10-12T08:26:15;28.00;;;15.70;;
4754;SDS011;2391;47.212;7.542;2022-10-12T08:28:45;25.13;;;14.50;;
4754;SDS011;2391;47.212;7.542;2022-10-12T08:31:14;34.30;;;16.53;;
4754;SDS011;2391;47.212;7.542;2022-10-12T08:33:44;27.40;;;15.67;;
4754;SDS011;2391;47.212;7.542;2022-10-12T08:36:10;26.17;;;13.67;;
4754;SDS011;2391;47.212;7.542;2022-10-12T08:38:49;30.80;;;15.53;;
4754;SDS011;2391;47.212;7.542;2022-10-12T08:46:11;22.63;;;12.60;;
4754;SDS011;2391;47.212;7.542;2022-10-12T08:48:47;30.30;;;14.50;;
4754;SDS011;2391;47.212;7.542;2022-10-12T08:51:22;21.87;;;13.80;;
4754;SDS011;2391;47.212;7.542;2022-10-12T08:53:49;27.93;;;15.40;;
4754;SDS011;2391;47.212;7.542;2022-10-12T08:56:28;23.63;;;13.80;;
4754;SDS011;2391;47.212;7.542;2022-10-12T08:58:54;26.20;;;14.93;;
4754;SDS011;2391;47.212;7.542;2022-10-12T09:04:05;23.80;;;14.73;;
4754;SDS011;2391;47.212;7.542;2022-10-12T09:07:04;30.40;;;15.50;;
4754;SDS011;2391;47.212;7.542;2022-10-12T09:12:30;25.67;;;16.23;;
4754;SDS011;2391;47.212;7.542;2022-10-12T09:14:56;26.13;;;15.63;;
4754;SDS011;2391;47.212;7.542;2022-10-12T09:17:27;28.57;;;16.27;;
4754;SDS011;2391;47.212;7.542;2022-10-12T09:20:16;30.33;;;18.17;;
4754;SDS011;2391;47.212;7.542;2022-10-12T09:22:46;36.13;;;16.67;;
4754;SDS011;2391;47.212;7.542;2022-10-12T09:25:22;34.20;;;16.10;;
4754;SDS011;2391;47.212;7.542;2022-10-12T09:27:56;29.07;;;16.10;;
4754;SDS011;2391;47.212;7.542;2022-10-12T09:30:42;30.07;;;16.20;;
4754;SDS011;2391;47.212;7.542;2022-10-12T09:35:39;32.00;;;17.23;;
4754;SDS011;2391;47.212;7.542;2022-10-12T09:38:12;30.30;;;17.63;;
4754;SDS011;2391;47.212;7.542;2022-10-12T09:40:40;29.03;;;17.27;;
4754;SDS011;2391;47.212;7.542;2022-10-12T09:43:15;29.27;;;16.70;;
4754;SDS011;2391;47.212;7.542;2022-10-12T09:45:46;30.07;;;16.80;;
4754;SDS011;2391;47.212;7.542;2022-10-12T09:48:30;33.13;;;17.10;;
4754;SDS011;2391;47.212;7.542;2022-10-12T09:50:55;34.90;;;19.07;;
4754;SDS011;2391;47.212;7.542;2022-10-12T09:53:35;38.17;;;19.80;;
4754;SDS011;2391;47.212;7.542;2022-10-12T10:01:28;30.70;;;17.90;;
4754;SDS011;2391;47.212;7.542;2022-10-12T10:06:54;27.07;;;16.03;;
4754;SDS011;2391;47.212;7.542;2022-10-12T10:09:33;33.40;;;17.10;;
4754;SDS011;2391;47.212;7.542;2022-10-12T10:15:00;44.57;;;18.60;;
4754;SDS011;2391;47.212;7.542;2022-10-12T10:17:35;30.43;;;17.50;;
4754;SDS011;2391;47.212;7.542;2022-10-12T10:20:03;36.27;;;17.00;;
4754;SDS011;2391;47.212;7.542;2022-10-12T10:22:33;35.73;;;17.27;;
4754;SDS011;2391;47.212;7.542;2022-10-12T10:25:03;30.80;;;17.43;;
4754;SDS011;2391;47.212;7.542;2022-10-12T10:27:36;28.17;;;16.13;;
4754;SDS011;2391;47.212;7.542;2022-10-12T10:30:20;32.40;;;16.37;;
4754;SDS011;2391;47.212;7.542;2022-10-12T10:32:53;26.13;;;15.40;;
4754;SDS011;2391;47.212;7.542;2022-10-12T10:35:22;24.17;;;14.50;;
4754;SDS011;2391;47.212;7.542;2022-10-12T10:37:56;32.10;;;15.13;;
4754;SDS011;2391;47.212;7.542;2022-10-12T10:43:18;26.80;;;14.30;;
4754;SDS011;2391;47.212;7.542;2022-10-12T10:45:53;29.70;;;15.37;;
4754;SDS011;2391;47.212;7.542;2022-10-12T10:48:26;29.03;;;14.47;;
4754;SDS011;2391;47.212;7.542;2022-10-12T10:50:59;21.63;;;13.17;;
4754;SDS011;2391;47.212;7.542;2022-10-12T10:53:48;27.53;;;14.43;;
4754;SDS011;2391;47.212;7.542;2022-10-12T10:56:28;25.53;;;13.67;;
4754;SDS011;2391;47.212;7.542;2022-10-12T10:59:21;22.57;;;12.63;;
4754;SDS011;2391;47.212;7.542;2022-10-12T11:01:51;23.17;;;13.60;;
4754;SDS011;2391;47.212;7.542;2022-10-12T11:04:35;19.53;;;13.20;;
4754;SDS011;2391;47.212;7.542;2022-10-12T11:07:55;23.63;;;12.77;;
4754;SDS011;2391;47.212;7.542;2022-10-12T11:10:04;17.20;;;10.57;;
4754;SDS011;2391;47.212;7.542;2022-10-12T11:12:27;20.07;;;10.90;;
4754;SDS011;2391;47.212;7.542;2022-10-12T11:15:04;19.57;;;10.53;;
4754;SDS011;2391;47.212;7.542;2022-10-12T11:17:43;17.37;;;10.70;;
4754;SDS011;2391;47.212;7.542;2022-10-12T11:28:32;23.00;;;12.03;;
4754;SDS011;2391;47.212;7.542;2022-10-12T11:31:10;25.13;;;10.60;;
4754;SDS011;2391;47.212;7.542;2022-10-12T11:33:42;21.60;;;11.70;;
4754;SDS011;2391;47.212;7.542;2022-10-12T11:36:30;21.97;;;11.80;;
4754;SDS011;2391;47.212;7.542;2022-10-12T11:38:43;23.87;;;11.17;;
4754;SDS011;2391;47.212;7.542;2022-10-12T11:44:20;17.80;;;11.30;;
4754;SDS011;2391;47.212;7.542;2022-10-12T11:49:38;22.90;;;12.63;;
4754;SDS011;2391;47.212;7.542;2022-10-12T11:52:07;23.60;;;12.83;;
4754;SDS011;2391;47.212;7.542;2022-10-12T11:57:40;22.83;;;11.83;;
4754;SDS011;2391;47.212;7.542;2022-10-12T12:00:03;21.67;;;11.80;;
4754;SDS011;2391;47.212;7.542;2022-10-12T12:02:47;22.23;;;11.27;;
4754;SDS011;2391;47.212;7.542;2022-10-12T12:05:20;19.03;;;10.27;;
4754;SDS011;2391;47.212;7.542;2022-10-12T12:07:51;24.07;;;12.10;;
4754;SDS011;2391;47.212;7.542;2022-10-12T12:21:07;25.50;;;10.30;;
4754;SDS011;2391;47.212;7.542;2022-10-12T12:23:47;19.07;;;9.30;;
4754;SDS011;2391;47.212;7.542;2022-10-12T12:31:51;18.27;;;9.93;;
4754;SDS011;2391;47.212;7.542;2022-10-12T12:34:35;13.90;;;10.43;;
4754;SDS011;2391;47.212;7.542;2022-10-12T12:37:19;18.63;;;9.80;;
4754;SDS011;2391;47.212;7.542;2022-10-12T12:40:16;16.13;;;9.20;;
4754;SDS011;2391;47.212;7.542;2022-10-12T12:42:43;16.23;;;9.67;;
4754;SDS011;2391;47.212;7.542;2022-10-12T12:50:45;15.77;;;9.23;;
4754;SDS011;2391;47.212;7.542;2022-10-12T12:55:57;19.60;;;10.30;;
4754;SDS011;2391;47.212;7.542;2022-10-12T13:01:43;14.57;;;9.37;;
4754;SDS011;2391;47.212;7.542;2022-10-12T13:07:39;23.00;;;9.40;;
4754;SDS011;2391;47.212;7.542;2022-10-12T13:22:08;19.83;;;10.37;;
4754;SDS011;2391;47.212;7.542;2022-10-12T13:24:35;15.87;;;10.30;;
4754;SDS011;2391;47.212;7.542;2022-10-12T13:27:22;18.83;;;9.97;;
4754;SDS011;2391;47.212;7.542;2022-10-12T13:38:45;16.37;;;10.07;;
4754;SDS011;2391;47.212;7.542;2022-10-12T13:41:18;20.67;;;10.30;;
4754;SDS011;2391;47.212;7.542;2022-10-12T13:44:04;18.97;;;9.70;;
4754;SDS011;2391;47.212;7.542;2022-10-12T13:49:23;18.73;;;10.00;;
4754;SDS011;2391;47.212;7.542;2022-10-12T13:51:55;16.37;;;10.13;;
4754;SDS011;2391;47.212;7.542;2022-10-12T13:54:42;21.70;;;11.43;;
4754;SDS011;2391;47.212;7.542;2022-10-12T14:03:01;25.97;;;10.47;;
4754;SDS011;2391;47.212;7.542;2022-10-12T14:05:41;19.07;;;10.57;;
4754;SDS011;2391;47.212;7.542;2022-10-12T14:10:46;16.37;;;9.30;;
4754;SDS011;2391;47.212;7.542;2022-10-12T14:13:29;15.27;;;9.90;;
4754;SDS011;2391;47.212;7.542;2022-10-12T14:21:16;17.17;;;10.47;;
4754;SDS011;2391;47.212;7.542;2022-10-12T14:23:52;20.43;;;10.10;;
4754;SDS011;2391;47.212;7.542;2022-10-12T14:26:42;18.60;;;9.77;;
4754;SDS011;2391;47.212;7.542;2022-10-12T14:35:02;17.67;;;8.27;;
4754;SDS011;2391;47.212;7.542;2022-10-12T14:37:47;24.10;;;10.33;;
4754;SDS011;2391;47.212;7.542;2022-10-12T14:48:39;17.07;;;8.73;;
4754;SDS011;2391;47.212;7.542;2022-10-12T14:51:00;18.43;;;9.13;;
4754;SDS011;2391;47.212;7.542;2022-10-12T14:53:42;19.63;;;9.80;;
4754;SDS011;2391;47.212;7.542;2022-10-12T14:56:02;17.83;;;9.73;;
4754;SDS011;2391;47.212;7.542;2022-10-12T14:58:35;15.83;;;10.17;;
4754;SDS011;2391;47.212;7.542;2022-10-12T15:03:40;19.37;;;10.23;;
4754;SDS011;2391;47.212;7.542;2022-10-12T15:08:56;24.73;;;9.90;;
4754;SDS011;2391;47.212;7.542;2022-10-12T15:11:34;15.93;;;10.07;;
4754;SDS011;2391;47.212;7.542;2022-10-12T15:19:20;16.90;;;10.17;;
4754;SDS011;2391;47.212;7.542;2022-10-12T15:22:07;15.17;;;9.00;;
4754;SDS011;2391;47.212;7.542;2022-10-12T15:24:35;21.43;;;10.37;;
4754;SDS011;2391;47.212;7.542;2022-10-12T15:27:10;26.40;;;9.57;;
4754;SDS011;2391;47.212;7.542;2022-10-12T15:32:09;17.77;;;10.30;;
4754;SDS011;2391;47.212;7.542;2022-10-12T15:34:47;23.63;;;10.00;;
4754;SDS011;2391;47.212;7.542;2022-10-12T15:37:18;18.77;;;9.63;;
4754;SDS011;2391;47.212;7.542;2022-10-12T15:50:37;15.80;;;9.67;;
4754;SDS011;2391;47.212;7.542;2022-10-12T15:53:24;15.77;;;9.40;;
4754;SDS011;2391;47.212;7.542;2022-10-12T15:56:09;18.90;;;9.17;;
4754;SDS011;2391;47.212;7.542;2022-10-12T15:58:37;18.37;;;9.83;;
4754;SDS011;2391;47.212;7.542;2022-10-12T16:01:21;19.53;;;10.17;;
4754;SDS011;2391;47.212;7.542;2022-10-12T16:06:46;21.30;;;9.30;;
4754;SDS011;2391;47.212;7.542;2022-10-12T16:09:12;19.83;;;9.30;;
4754;SDS011;2391;47.212;7.542;2022-10-12T16:11:38;16.93;;;9.33;;
4754;SDS011;2391;47.212;7.542;2022-10-12T16:24:09;16.87;;;10.17;;
4754;SDS011;2391;47.212;7.542;2022-10-12T16:32:03;21.30;;;12.30;;
4754;SDS011;2391;47.212;7.542;2022-10-12T16:34:30;20.43;;;11.33;;
4754;SDS011;2391;47.212;7.542;2022-10-12T16:36:56;28.77;;;12.57;;
4754;SDS011;2391;47.212;7.542;2022-10-12T16:39:21;17.30;;;10.23;;
4754;SDS011;2391;47.212;7.542;2022-10-12T16:41:47;15.60;;;9.87;;
4754;SDS011;2391;47.212;7.542;2022-10-12T16:44:13;20.47;;;9.43;;
4754;SDS011;2391;47.212;7.542;2022-10-12T16:46:39;15.10;;;9.57;;
4754;SDS011;2391;47.212;7.542;2022-10-12T16:49:05;24.90;;;9.77;;
4754;SDS011;2391;47.212;7.542;2022-10-12T16:51:31;10.43;;;8.00;;
4754;SDS011;2391;47.212;7.542;2022-10-12T16:53:56;22.00;;;7.60;;
4754;SDS011;2391;47.212;7.542;2022-10-12T16:56:22;14.80;;;8.87;;
4754;SDS011;2391;47.212;7.542;2022-10-12T16:58:48;12.90;;;7.53;;
4754;SDS011;2391;47.212;7.542;2022-10-12T17:01:14;13.07;;;7.47;;
4754;SDS011;2391;47.212;7.542;2022-10-12T17:03:40;11.73;;;6.70;;
4754;SDS011;2391;47.212;7.542;2022-10-12T17:06:06;33.50;;;7.23;;
4754;SDS011;2391;47.212;7.542;2022-10-12T17:08:33;12.87;;;7.27;;
4754;SDS011;2391;47.212;7.542;2022-10-12T17:11:04;13.77;;;7.20;;
4754;SDS011;2391;47.212;7.542;2022-10-12T17:13:35;18.33;;;7.23;;
4754;SDS011;2391;47.212;7.542;2022-10-12T17:16:02;14.53;;;6.77;;
4754;SDS011;2391;47.212;7.542;2022-10-12T17:18:31;10.50;;;6.97;;
4754;SDS011;2391;47.212;7.542;2022-10-12T17:20:57;14.17;;;6.77;;
4754;SDS011;2391;47.212;7.542;2022-10-12T17:23:23;14.77;;;6.53;;
4754;SDS011;2391;47.212;7.542;2022-10-12T17:25:49;15.30;;;7.43;;
4754;SDS011;2391;47.212;7.542;2022-10-12T17:28:17;11.23;;;6.40;;
4754;SDS011;2391;47.212;7.542;2022-10-12T17:30:43;15.60;;;7.47;;
4754;SDS011;2391;47.212;7.542;2022-10-12T17:33:09;15.80;;;6.97;;
4754;SDS011;2391;47.212;7.542;2022-10-12T17:35:37;14.70;;;6.40;;
4754;SDS011;2391;47.212;7.542;2022-10-12T17:38:05;12.50;;;8.00;;
4754;SDS011;2391;47.212;7.542;2022-10-12T17:40:31;15.33;;;8.43;;
4754;SDS011;2391;47.212;7.542;2022-10-12T17:42:57;20.63;;;9.50;;
4754;SDS011;2391;47.212;7.542;2022-10-12T17:45:23;16.60;;;7.80;;
4754;SDS011;2391;47.212;7.542;2022-10-12T17:47:48;13.53;;;7.47;;
4754;SDS011;2391;47.212;7.542;2022-10-12T17:50:14;24.13;;;9.13;;
4754;SDS011;2391;47.212;7.542;2022-10-12T17:52:40;23.23;;;7.40;;
4754;SDS011;2391;47.212;7.542;2022-10-12T17:55:06;19.43;;;8.40;;
4754;SDS011;2391;47.212;7.542;2022-10-12T17:57:32;14.57;;;7.50;;
4754;SDS011;2391;47.212;7.542;2022-10-12T17:59:58;13.23;;;7.77;;
4754;SDS011;2391;47.212;7.542;2022-10-12T18:02:24;17.03;;;8.10;;
4754;SDS011;2391;47.212;7.542;2022-10-12T18:04:50;16.47;;;7.20;;
4754;SDS011;2391;47.212;7.542;2022-10-12T18:07:16;14.77;;;7.63;;
4754;SDS011;2391;47.212;7.542;2022-10-12T18:09:42;16.20;;;7.40;;
4754;SDS011;2391;47.212;7.542;2022-10-12T18:12:07;13.40;;;7.10;;
4754;SDS011;2391;47.212;7.542;2022-10-12T18:14:33;21.70;;;7.80;;
4754;SDS011;2391;47.212;7.542;2022-10-12T18:16:59;12.50;;;7.20;;
4754;SDS011;2391;47.212;7.542;2022-10-12T18:19:25;12.80;;;8.27;;
4754;SDS011;2391;47.212;7.542;2022-10-12T18:21:51;18.03;;;8.57;;
4754;SDS011;2391;47.212;7.542;2022-10-12T18:24:17;24.07;;;8.07;;
4754;SDS011;2391;47.212;7.542;2022-10-12T18:26:45;15.30;;;7.87;;
4754;SDS011;2391;47.212;7.542;2022-10-12T18:29:12;18.33;;;9.00;;
4754;SDS011;2391;47.212;7.542;2022-10-12T18:31:38;20.60;;;9.17;;
4754;SDS011;2391;47.212;7.542;2022-10-12T18:34:03;16.67;;;8.20;;
4754;SDS011;2391;47.212;7.542;2022-10-12T18:36:30;16.93;;;7.73;;
4754;SDS011;2391;47.212;7.542;2022-10-12T18:38:58;21.77;;;7.90;;
4754;SDS011;2391;47.212;7.542;2022-10-12T18:41:24;17.63;;;7.80;;
4754;SDS011;2391;47.212;7.542;2022-10-12T18:43:55;10.67;;;7.30;;
4754;SDS011;2391;47.212;7.542;2022-10-12T18:46:22;14.60;;;7.97;;
4754;SDS011;2391;47.212;7.542;2022-10-12T18:48:50;14.13;;;7.90;;
4754;SDS011;2391;47.212;7.542;2022-10-12T18:51:20;16.03;;;9.23;;
4754;SDS011;2391;47.212;7.542;2022-10-12T18:53:51;15.93;;;8.67;;
4754;SDS011;2391;47.212;7.542;2022-10-12T18:56:17;23.27;;;10.23;;
4754;SDS011;2391;47.212;7.542;2022-10-12T18:58:43;16.43;;;9.53;;
4754;SDS011;2391;47.212;7.542;2022-10-12T19:01:10;17.57;;;8.80;;
4754;SDS011;2391;47.212;7.542;2022-10-12T19:03:39;17.40;;;8.90;;
4754;SDS011;2391;47.212;7.542;2022-10-12T19:06:15;11.60;;;8.97;;
4754;SDS011;2391;47.212;7.542;2022-10-12T19:08:39;10.67;;;7.80;;
4754;SDS011;2391;47.212;7.542;2022-10-12T19:11:08;17.07;;;8.57;;
4754;SDS011;2391;47.212;7.542;2022-10-12T19:13:35;19.83;;;7.80;;
4754;SDS011;2391;47.212;7.542;2022-10-12T19:16:03;20.57;;;8.87;;
4754;SDS011;2391;47.212;7.542;2022-10-12T19:18:34;12.20;;;7.90;;
4754;SDS011;2391;47.212;7.542;2022-10-12T19:21:04;13.83;;;8.87;;
4754;SDS011;2391;47.212;7.542;2022-10-12T19:23:32;14.63;;;8.10;;
4754;SDS011;2391;47.212;7.542;2022-10-12T19:26:02;17.73;;;8.80;;
4754;SDS011;2391;47.212;7.542;2022-10-12T19:28:32;21.40;;;9.63;;
4754;SDS011;2391;47.212;7.542;2022-10-12T19:30:59;24.50;;;8.93;;
4754;SDS011;2391;47.212;7.542;2022-10-12T19:33:26;18.93;;;9.13;;
4754;SDS011;2391;47.212;7.542;2022-10-12T19:35:53;11.83;;;7.87;;
4754;SDS011;2391;47.212;7.542;2022-10-12T19:38:20;13.37;;;9.00;;
4754;SDS011;2391;47.212;7.542;2022-10-12T19:40:46;10.67;;;8.67;;
4754;SDS011;2391;47.212;7.542;2022-10-12T19:43:14;13.07;;;8.00;;
4754;SDS011;2391;47.212;7.542;2022-10-12T19:45:40;14.20;;;9.27;;
4754;SDS011;2391;47.212;7.542;2022-10-12T19:48:07;16.93;;;8.87;;
4754;SDS011;2391;47.212;7.542;2022-10-12T19:50:33;15.50;;;9.13;;
4754;SDS011;2391;47.212;7.542;2022-10-12T19:53:00;14.87;;;8.90;;
4754;SDS011;2391;47.212;7.542;2022-10-12T19:55:26;17.53;;;9.40;;
4754;SDS011;2391;47.212;7.542;2022-10-12T19:57:52;17.90;;;9.40;;
4754;SDS011;2391;47.212;7.542;2022-10-12T20:00:18;10.53;;;8.40;;
4754;SDS011;2391;47.212;7.542;2022-10-12T20:02:44;14.00;;;7.97;;
4754;SDS011;2391;47.212;7.542;2022-10-12T20:05:10;17.67;;;8.47;;
4754;SDS011;2391;47.212;7.542;2022-10-12T20:07:36;14.03;;;9.53;;
4754;SDS011;2391;47.212;7.542;2022-10-12T20:10:04;27.20;;;9.80;;
4754;SDS011;2391;47.212;7.542;2022-10-12T20:12:31;18.40;;;8.70;;
4754;SDS011;2391;47.212;7.542;2022-10-12T20:14:58;18.60;;;8.80;;
4754;SDS011;2391;47.212;7.542;2022-10-12T20:17:24;18.93;;;9.10;;
4754;SDS011;2391;47.212;7.542;2022-10-12T20:19:50;19.20;;;9.50;;
4754;SDS011;2391;47.212;7.542;2022-10-12T20:22:16;20.33;;;9.70;;
4754;SDS011;2391;47.212;7.542;2022-10-12T20:24:43;25.20;;;10.20;;
4754;SDS011;2391;47.212;7.542;2022-10-12T20:27:09;18.93;;;10.37;;
4754;SDS011;2391;47.212;7.542;2022-10-12T20:29:35;13.80;;;9.70;;
4754;SDS011;2391;47.212;7.542;2022-10-12T20:32:01;20.40;;;9.87;;
4754;SDS011;2391;47.212;7.542;2022-10-12T20:34:27;15.07;;;10.00;;
4754;SDS011;2391;47.212;7.542;2022-10-12T20:36:53;16.60;;;9.83;;
4754;SDS011;2391;47.212;7.542;2022-10-12T20:39:19;18.33;;;11.07;;
4754;SDS011;2391;47.212;7.542;2022-10-12T20:41:45;25.10;;;10.23;;
4754;SDS011;2391;47.212;7.542;2022-10-12T20:44:11;18.27;;;9.37;;
4754;SDS011;2391;47.212;7.542;2022-10-12T20:46:37;26.60;;;9.10;;
4754;SDS011;2391;47.212;7.542;2022-10-12T20:49:03;19.17;;;10.00;;
4754;SDS011;2391;47.212;7.542;2022-10-12T20:51:30;23.57;;;9.50;;
4754;SDS011;2391;47.212;7.542;2022-10-12T20:53:58;19.90;;;9.77;;
4754;SDS011;2391;47.212;7.542;2022-10-12T20:56:26;22.43;;;9.13;;
4754;SDS011;2391;47.212;7.542;2022-10-12T20:58:53;15.77;;;8.60;;
4754;SDS011;2391;47.212;7.542;2022-10-12T21:01:21;16.07;;;9.53;;
4754;SDS011;2391;47.212;7.542;2022-10-12T21:03:50;18.53;;;10.20;;
4754;SDS011;2391;47.212;7.542;2022-10-12T21:06:17;14.97;;;9.60;;
4754;SDS011;2391;47.212;7.542;2022-10-12T21:08:47;18.27;;;9.67;;
4754;SDS011;2391;47.212;7.542;2022-10-12T21:11:16;14.27;;;9.07;;
4754;SDS011;2391;47.212;7.542;2022-10-12T21:13:42;15.10;;;9.57;;
4754;SDS011;2391;47.212;7.542;2022-10-12T21:16:11;18.33;;;9.30;;
4754;SDS011;2391;47.212;7.542;2022-10-12T21:18:38;13.00;;;9.00;;
4754;SDS011;2391;47.212;7.542;2022-10-12T21:21:05;17.87;;;8.93;;
4754;SDS011;2391;47.212;7.542;2022-10-12T21:23:35;14.27;;;9.47;;
4754;SDS011;2391;47.212;7.542;2022-10-12T21:26:09;15.77;;;8.97;;
4754;SDS011;2391;47.212;7.542;2022-10-12T21:28:37;16.67;;;9.77;;
4754;SDS011;2391;47.212;7.542;2022-10-12T21:31:03;17.00;;;10.17;;
4754;SDS011;2391;47.212;7.542;2022-10-12T21:33:29;21.13;;;9.97;;
4754;SDS011;2391;47.212;7.542;2022-10-12T21:36:03;19.70;;;10.00;;
4754;SDS011;2391;47.212;7.542;2022-10-12T21:38:33;13.43;;;8.00;;
4754;SDS011;2391;47.212;7.542;2022-10-12T21:41:00;21.80;;;9.80;;
4754;SDS011;2391;47.212;7.542;2022-10-12T21:43:26;21.57;;;10.20;;
4754;SDS011;2391;47.212;7.542;2022-10-12T21:45:51;16.67;;;10.20;;
4754;SDS011;2391;47.212;7.542;2022-10-12T21:48:18;20.90;;;11.07;;
4754;SDS011;2391;47.212;7.542;2022-10-12T21:50:43;19.50;;;10.43;;
4754;SDS011;2391;47.212;7.542;2022-10-12T21:53:12;23.23;;;13.03;;
4754;SDS011;2391;47.212;7.542;2022-10-12T21:55:38;24.87;;;10.50;;
4754;SDS011;2391;47.212;7.542;2022-10-12T21:58:04;13.83;;;9.47;;
4754;SDS011;2391;47.212;7.542;2022-10-12T22:00:30;22.60;;;11.00;;
4754;SDS011;2391;47.212;7.542;2022-10-12T22:02:56;14.77;;;10.00;;
4754;SDS011;2391;47.212;7.542;2022-10-12T22:05:22;19.70;;;10.70;;
4754;SDS011;2391;47.212;7.542;2022-10-12T22:07:48;16.97;;;10.73;;
4754;SDS011;2391;47.212;7.542;2022-10-12T22:10:14;34.40;;;11.50;;
4754;SDS011;2391;47.212;7.542;2022-10-12T22:12:40;13.30;;;9.93;;
4754;SDS011;2391;47.212;7.542;2022-10-12T22:15:06;21.57;;;11.40;;
4754;SDS011;2391;47.212;7.542;2022-10-12T22:17:33;21.90;;;10.77;;
4754;SDS011;2391;47.212;7.542;2022-10-12T22:19:59;17.73;;;9.70;;
4754;SDS011;2391;47.212;7.542;2022-10-12T22:22:25;19.17;;;11.10;;
4754;SDS011;2391;47.212;7.542;2022-10-12T22:24:51;16.07;;;10.60;;
4754;SDS011;2391;47.212;7.542;2022-10-12T22:27:17;20.97;;;11.00;;
4754;SDS011;2391;47.212;7.542;2022-10-12T22:29:43;20.30;;;10.10;;
4754;SDS011;2391;47.212;7.542;2022-10-12T22:32:09;23.20;;;11.13;;